Time;durP1;ratioP1;P1;durP2;ratioP2;P2;SDS_P1;SDS_P2;PMS_P1;PMS_P2;Temp;Humidity;BMP_temperature;BMP_pressure;BME280_temperature;BME280_humidity;BME280_pressure;Samples;Min_cycle;Max_cycle;Signal;HPM_P1;HPM_P2
2023/11/12 00:02:58;;;;;;;;;;;;;;;;;;6293360;28;19916;-83
2023/11/12 00:05:58;;;;;;;;;;;;;;;;;;6274685;28;20002;-84
2023/11/12 00:08:58;;;;;;;;;;;;;;;;;;6273432;28;19919;-84
2023/11/12 00:11:58;;;;;;;;;;;;;;;;;;6273439;28;19913;-87
2023/11/12 00:14:59;;;;;;;;;;;;;;;;;;6275032;28;19928;-84
2023/11/12 00:17:59;;;;;;;;;;;;;;;;;;6271985;28;19931;-84
2023/11/12 00:20:59;;;;;;;;;;;;;;;;;;6276341;28;20049;-86
2023/11/12 00:23:59;;;;;;;;;;;;;;;;;;6271201;28;19962;-84
2023/11/12 00:26:59;;;;;;;;;;;;;;;;;;6273258;28;19921;-86
2023/11/12 00:30:00;;;;;;;;;;;;;;;;;;6268713;28;19921;-85
2023/11/12 00:33:00;;;;;;;;;;;;;;;;;;6272009;28;19939;-84
2023/11/12 00:36:00;;;;;;;;;;;;;;;;;;6276371;28;20058;-85
2023/11/12 00:39:00;;;;;;;;;;;;;;;;;;6271462;28;20285;-83
2023/11/12 00:42:00;;;;;;;;;;;;;;;;;;6288158;28;20346;-83
2023/11/12 00:45:00;;;;;;;;;;;;;;;;;;6273713;28;19939;-83
2023/11/12 00:48:00;;;;;;;;;;;;;;;;;;6271394;28;19995;-84
2023/11/12 00:51:01;;;;;;;;;;;;;;;;;;6270259;28;19917;-82
2023/11/12 00:54:01;;;;;;;;;;;;;;;;;;6265428;28;20294;-84
2023/11/12 00:57:01;;;;;;;;;;;;;;;;;;6268988;28;19975;-82
2023/11/12 01:00:04;;;;;;;;;;;;;;;;;;6272114;28;19916;-83
2023/11/12 01:03:04;;;;;;;;;;;;;;;;;;6265687;28;19921;-83
2023/11/12 01:06:04;;;;;;;;;;;;;;;;;;6283929;28;20323;-82
2023/11/12 01:09:04;;;;;;;;;;;;;;;;;;6269229;28;19916;-83
2023/11/12 01:12:04;;;;;;;;;;;;;;;;;;6271069;28;20388;-82
2023/11/12 01:15:04;;;;;;;;;;;;;;;;;;6273247;28;19921;-83
2023/11/12 01:18:04;;;;;;;;;;;;;;;;;;6273631;28;20365;-82
2023/11/12 01:21:04;;;;;;;;;;;;;;;;;;6272222;28;19914;-83
2023/11/12 01:24:05;;;;;;;;;;;;;;;;;;6274998;28;19960;-83
2023/11/12 01:27:05;;;;;;;;;;;;;;;;;;6273094;28;20313;-82
2023/11/12 01:30:05;;;;;;;;;;;;;;;;;;6293050;28;20350;-83
2023/11/12 01:33:06;;;;;;;;;;;;;;;;;;6272480;28;19916;-83
2023/11/12 01:36:06;;;;;;;;;;;;;;;;;;6271098;28;19917;-82
2023/11/12 01:39:08;;;;;;;;;;;;;;;;;;6264590;28;20019;-83
2023/11/12 01:42:11;;;;;;;;;;;;;;;;;;6275260;28;19912;-83
2023/11/12 01:45:11;;;;;;;;;;;;;;;;;;6276552;28;19924;-83
2023/11/12 01:48:12;;;;;;;;;;;;;;;;;;6277735;28;19913;-82
2023/11/12 01:51:12;;;;;;;;;;;;;;;;;;6276256;28;19923;-85
2023/11/12 01:54:12;;;;;;;;;;;;;;;;;;6277466;28;19921;-85
2023/11/12 01:57:12;;;;;;;;;;;;;;;;;;6279116;28;20428;-85
2023/11/12 02:00:15;;;;;;;;;;;;;;;;;;6290020;28;19927;-84
2023/11/12 02:03:16;;;;;;;;;;;;;;;;;;6279675;28;20011;-87
2023/11/12 02:06:16;;;;;;;;;;;;;;;;;;6279251;28;19935;-84
2023/11/12 02:09:17;;;;;;;;;;;;;;;;;;6278703;28;20370;-84
2023/11/12 02:12:17;;;;;;;;;;;;;;;;;;6282764;28;19919;-88
2023/11/12 02:15:18;;;;;;;;;;;;;;;;;;6279099;28;20019;-84
2023/11/12 02:18:18;;;;;;;;;;;;;;;;;;6295249;28;19924;-84
2023/11/12 02:21:18;;;;;;;;;;;;;;;;;;6278637;28;19916;-84
2023/11/12 02:24:18;;;;;;;;;;;;;;;;;;6276032;28;19917;-84
2023/11/12 02:27:18;;;;;;;;;;;;;;;;;;6277903;28;20007;-84
2023/11/12 02:30:19;;;;;;;;;;;;;;;;;;6301924;28;19913;-85
2023/11/12 02:33:21;;;;;;;;;;;;;;;;;;6278102;28;19919;-86
2023/11/12 02:36:25;;;;;;;;;;;;;;;;;;6296999;28;20356;-85
2023/11/12 02:39:25;;;;;;;;;;;;;;;;;;6278363;28;19968;-84
2023/11/12 02:42:26;;;;;;;;;;;;;;;;;;6294787;28;20295;-84
2023/11/12 02:45:26;;;;;;;;;;;;;;;;;;6278546;28;19921;-84
2023/11/12 02:48:27;;;;;;;;;;;;;;;;;;6278170;28;19912;-84
2023/11/12 02:51:27;;;;;;;;;;;;;;;;;;6277680;28;19920;-84
2023/11/12 02:54:27;;;;;;;;;;;;;;;;;;6289634;28;19952;-84
2023/11/12 02:57:28;;;;;;;;;;;;;;;;;;6287994;28;20003;-86
2023/11/12 03:00:28;;;;;;;;;;;;;;;;;;6278620;28;19912;-83
2023/11/12 03:03:28;;;;;;;;;;;;;;;;;;6277548;28;19919;-82
2023/11/12 03:06:28;;;;;;;;;;;;;;;;;;6272196;28;19947;-82
2023/11/12 03:09:28;;;;;;;;;;;;;;;;;;6280475;28;19920;-82
2023/11/12 03:12:28;;;;;;;;;;;;;;;;;;6279650;28;19917;-83
2023/11/12 03:15:28;;;;;;;;;;;;;;;;;;6278595;28;19919;-84
2023/11/12 03:18:29;;;;;;;;;;;;;;;;;;6276767;28;19921;-82
2023/11/12 03:21:29;;;;;;;;;;;;;;;;;;6278828;28;19974;-84
2023/11/12 03:24:29;;;;;;;;;;;;;;;;;;6274604;28;19924;-82
2023/11/12 03:27:29;;;;;;;;;;;;;;;;;;6278103;28;19919;-84
2023/11/12 03:30:29;;;;;;;;;;;;;;;;;;6277665;28;19956;-83
2023/11/12 03:33:31;;;;;;;;;;;;;;;;;;6275096;28;19934;-83
2023/11/12 03:36:31;;;;;;;;;;;;;;;;;;6274130;28;19917;-83
2023/11/12 03:39:31;;;;;;;;;;;;;;;;;;6276006;28;19929;-82
2023/11/12 03:42:31;;;;;;;;;;;;;;;;;;6276301;28;19916;-82
2023/11/12 03:45:32;;;;;;;;;;;;;;;;;;6275495;28;19913;-83
2023/11/12 03:48:32;;;;;;;;;;;;;;;;;;6273801;28;19959;-83
2023/11/12 03:51:32;;;;;;;;;;;;;;;;;;6274896;28;19912;-85
2023/11/12 03:54:32;;;;;;;;;;;;;;;;;;6276236;28;19979;-87
2023/11/12 03:57:32;;;;;;;;;;;;;;;;;;6275471;28;19921;-84
2023/11/12 04:00:32;;;;;;;;;;;;;;;;;;6290594;28;19919;-82
2023/11/12 04:03:32;;;;;;;;;;;;;;;;;;6275137;28;20373;-83
2023/11/12 04:06:33;;;;;;;;;;;;;;;;;;6271741;28;19928;-84
2023/11/12 04:09:33;;;;;;;;;;;;;;;;;;6293275;28;20070;-84
2023/11/12 04:12:33;;;;;;;;;;;;;;;;;;6274865;28;20366;-84
2023/11/12 04:15:33;;;;;;;;;;;;;;;;;;6270765;28;19913;-85
2023/11/12 04:18:34;;;;;;;;;;;;;;;;;;6271159;28;20408;-84
2023/11/12 04:21:34;;;;;;;;;;;;;;;;;;6272147;28;19924;-85
2023/11/12 04:24:34;;;;;;;;;;;;;;;;;;6273329;28;20342;-84
2023/11/12 04:27:37;;;;;;;;;;;;;;;;;;6275633;28;19939;-84
2023/11/12 04:30:37;;;;;;;;;;;;;;;;;;6275197;28;19919;-84
2023/11/12 04:33:38;;;;;;;;;;;;;;;;;;6278043;28;19951;-84
2023/11/12 04:36:38;;;;;;;;;;;;;;;;;;6271486;28;20312;-85
2023/11/12 04:39:38;;;;;;;;;;;;;;;;;;6278840;28;19998;-83
2023/11/12 04:42:38;;;;;;;;;;;;;;;;;;6283215;28;19978;-83
2023/11/12 04:45:38;;;;;;;;;;;;;;;;;;6284938;28;19912;-84
2023/11/12 04:48:39;;;;;;;;;;;;;;;;;;6288491;28;19917;-84
2023/11/12 04:51:39;;;;;;;;;;;;;;;;;;6275127;28;19982;-84
2023/11/12 04:54:39;;;;;;;;;;;;;;;;;;6308629;28;19919;-84
2023/11/12 04:57:40;;;;;;;;;;;;;;;;;;6287744;28;20014;-84
2023/11/12 05:00:40;;;;;;;;;;;;;;;;;;6291118;28;19912;-84
2023/11/12 05:03:40;;;;;;;;;;;;;;;;;;6296721;28;19981;-83
2023/11/12 05:06:40;;;;;;;;;;;;;;;;;;6305212;28;20011;-84
2023/11/12 05:09:41;;;;;;;;;;;;;;;;;;6282789;28;19913;-85
2023/11/12 05:12:41;;;;;;;;;;;;;;;;;;6292242;28;19925;-84
2023/11/12 05:15:42;;;;;;;;;;;;;;;;;;6279959;28;20423;-84
2023/11/12 05:18:42;;;;;;;;;;;;;;;;;;6293396;28;20015;-82
2023/11/12 05:21:42;;;;;;;;;;;;;;;;;;6340340;28;20376;-82
2023/11/12 05:24:42;;;;;;;;;;;;;;;;;;6309370;28;19948;-82
2023/11/12 05:27:44;;;;;;;;;;;;;;;;;;6301049;28;19932;-86
2023/11/12 05:30:44;;;;;;;;;;;;;;;;;;6302499;28;20365;-82
2023/11/12 05:33:44;;;;;;;;;;;;;;;;;;6302244;28;19909;-82
2023/11/12 05:36:44;;;;;;;;;;;;;;;;;;6291974;28;20593;-82
2023/11/12 05:39:44;;;;;;;;;;;;;;;;;;6289652;28;19928;-82
2023/11/12 05:42:44;;;;;;;;;;;;;;;;;;6296076;28;19955;-82
2023/11/12 05:45:44;;;;;;;;;;;;;;;;;;6300990;28;19912;-82
2023/11/12 05:48:45;;;;;;;;;;;;;;;;;;6282056;28;20346;-82
2023/11/12 05:51:45;;;;;;;;;;;;;;;;;;6296201;28;20021;-82
2023/11/12 05:54:45;;;;;;;;;;;;;;;;;;6293962;28;19912;-82
2023/11/12 05:57:45;;;;;;;;;;;;;;;;;;6297000;28;19935;-82
2023/11/12 06:00:45;;;;;;;;;;;;;;;;;;6292031;28;19913;-82
2023/11/12 06:03:45;;;;;;;;;;;;;;;;;;6293525;28;19912;-82
2023/11/12 06:06:45;;;;;;;;;;;;;;;;;;6298095;28;19913;-84
2023/11/12 06:09:46;;;;;;;;;;;;;;;;;;6294794;28;19912;-82
2023/11/12 06:12:46;;;;;;;;;;;;;;;;;;6288724;28;19916;-82
2023/11/12 06:15:46;;;;;;;;;;;;;;;;;;6314959;28;19913;-82
2023/11/12 06:18:48;;;;;;;;;;;;;;;;;;6294576;28;19952;-82
2023/11/12 06:21:48;;;;;;;;;;;;;;;;;;6289860;28;19912;-84
2023/11/12 06:24:48;;;;;;;;;;;;;;;;;;6297132;28;19917;-82
2023/11/12 06:27:49;;;;;;;;;;;;;;;;;;6313304;28;19920;-82
2023/11/12 06:30:51;;;;;;;;;;;;;;;;;;6293688;28;19912;-83
2023/11/12 06:33:51;;;;;;;;;;;;;;;;;;6290236;28;19919;-85
2023/11/12 06:36:51;;;;;;;;;;;;;;;;;;6295469;28;19978;-82
2023/11/12 06:39:51;;;;;;;;;;;;;;;;;;6303258;28;19924;-82
2023/11/12 06:42:51;;;;;;;;;;;;;;;;;;6296542;28;19916;-82
2023/11/12 06:45:52;;;;;;;;;;;;;;;;;;6289630;28;20400;-82
2023/11/12 06:48:52;;;;;;;;;;;;;;;;;;6300313;28;19909;-83
2023/11/12 06:51:53;;;;;;;;;;;;;;;;;;6296620;28;19916;-82
2023/11/12 06:54:53;;;;;;;;;;;;;;;;;;6298446;28;19912;-82
2023/11/12 06:57:53;;;;;;;;;;;;;;;;;;6314328;28;19920;-82
2023/11/12 07:00:53;;;;;;;;;;;;;;;;;;6291387;28;19952;-82
2023/11/12 07:03:53;;;;;;;;;;;;;;;;;;6294788;28;19920;-85
2023/11/12 07:06:53;;;;;;;;;;;;;;;;;;6296004;28;19916;-82
2023/11/12 07:09:54;;;;;;;;;;;;;;;;;;6296910;28;19926;-82
2023/11/12 07:12:54;;;;;;;;;;;;;;;;;;6293310;28;19913;-83
2023/11/12 07:15:55;;;;;;;;;;;;;;;;;;6300004;28;20000;-83
2023/11/12 07:18:58;;;;;;;;;;;;;;;;;;6308598;28;19920;-86
2023/11/12 07:21:58;;;;;;;;;;;;;;;;;;6276471;28;19939;-83
2023/11/12 07:24:58;;;;;;;;;;;;;;;;;;6317289;28;19916;-84
2023/11/12 07:27:58;;;;;;;;;;;;;;;;;;6302218;28;19909;-83
2023/11/12 07:30:59;;;;;;;;;;;;;;;;;;6313435;28;19919;-83
2023/11/12 07:34:00;;;;;;;;;;;;;;;;;;6309978;28;19913;-83
2023/11/12 07:37:00;;;;;;;;;;;;;;;;;;6297360;28;20015;-84
2023/11/12 07:40:01;;;;;;;;;;;;;;;;;;6293818;28;19964;-82
2023/11/12 07:43:01;;;;;;;;;;;;;;;;;;6282628;28;20027;-83
2023/11/12 07:46:02;;;;;;;;;;;;;;;;;;6283448;28;20357;-82
2023/11/12 07:49:02;;;;;;;;;;;;;;;;;;6296101;28;19912;-84
2023/11/12 07:52:02;;;;;;;;;;;;;;;;;;6298251;28;19912;-85
2023/11/12 07:55:03;;;;;;;;;;;;;;;;;;6296461;28;20283;-83
2023/11/12 07:58:03;;;;;;;;;;;;;;;;;;6314282;28;20012;-82
2023/11/12 08:01:03;;;;;;;;;;;;;;;;;;6293583;28;19951;-82
2023/11/12 08:04:03;;;;;;;;;;;;;;;;;;6287807;28;20015;-84
2023/11/12 08:07:03;;;;;;;;;;;;;;;;;;6296324;28;20003;-83
2023/11/12 08:10:04;;;;;;;;;;;;;;;;;;6294624;28;20285;-82
2023/11/12 08:13:04;;;;;;;;;;;;;;;;;;6290064;28;19952;-81
2023/11/12 08:16:04;;;;;;;;;;;;;;;;;;6275279;28;19962;-82
2023/11/12 08:19:06;;;;;;;;;;;;;;;;;;6299312;28;19936;-82
2023/11/12 08:22:06;;;;;;;;;;;;;;;;;;6293084;28;19919;-81
2023/11/12 08:25:06;;;;;;;;;;;;;;;;;;6317094;28;19913;-81
2023/11/12 08:28:06;;;;;;;;;;;;;;;;;;6294733;28;19917;-82
2023/11/12 08:31:06;;;;;;;;;;;;;;;;;;6298063;28;19909;-81
2023/11/12 08:34:06;;;;;;;;;;;;;;;;;;6290362;28;19920;-83
2023/11/12 08:37:06;;;;;;;;;;;;;;;;;;6286596;28;20357;-81
2023/11/12 08:40:07;;;;;;;;;;;;;;;;;;6296322;28;19931;-81
2023/11/12 08:43:07;;;;;;;;;;;;;;;;;;6278770;28;19920;-81
2023/11/12 08:46:07;;;;;;;;;;;;;;;;;;6281186;28;19915;-81
2023/11/12 08:49:08;;;;;;;;;;;;;;;;;;6292761;28;19916;-85
2023/11/12 08:52:08;;;;;;;;;;;;;;;;;;6291473;28;19965;-84
2023/11/12 08:55:08;;;;;;;;;;;;;;;;;;6292121;28;20369;-84
2023/11/12 08:58:08;;;;;;;;;;;;;;;;;;6296051;28;19917;-84
2023/11/12 09:01:11;;;;;;;;;;;;;;;;;;6295970;28;20269;-84
2023/11/12 09:04:12;;;;;;;;;;;;;;;;;;6292848;28;20211;-82
2023/11/12 09:07:12;;;;;;;;;;;;;;;;;;6295291;28;19912;-83
2023/11/12 09:10:12;;;;;;;;;;;;;;;;;;6293351;28;19913;-83
2023/11/12 09:13:13;;;;;;;;;;;;;;;;;;6289033;28;20352;-83
2023/11/12 09:16:13;;;;;;;;;;;;;;;;;;6294688;28;19912;-83
2023/11/12 09:19:13;;;;;;;;;;;;;;;;;;5933273;28;10000224;-84
2023/11/12 09:22:13;;;;;;;;;;;;;;;;;;6292062;28;19916;-84
2023/11/12 09:25:13;;;;;;;;;;;;;;;;;;6275280;28;19963;-84
2023/11/12 09:28:14;;;;;;;;;;;;;;;;;;6292088;28;20351;-83
2023/11/12 09:31:14;;;;;;;;;;;;;;;;;;6290960;28;20381;-84
2023/11/12 09:34:14;;;;;;;;;;;;;;;;;;6291801;28;20634;-84
2023/11/12 09:37:14;;;;;;;;;;;;;;;;;;6290600;28;19927;-84
2023/11/12 09:40:16;;;;;;;;;;;;;;;;;;6273563;28;20379;-84
2023/11/12 09:43:17;;;;;;;;;;;;;;;;;;5936582;28;9999861;-85
2023/11/12 09:46:17;;;;;;;;;;;;;;;;;;6293990;28;20029;-85
2023/11/12 09:49:17;;;;;;;;;;;;;;;;;;6289008;28;19927;-86
2023/11/12 09:52:17;;;;;;;;;;;;;;;;;;6291713;28;19982;-85
2023/11/12 09:55:17;;;;;;;;;;;;;;;;;;6294790;28;20381;-86
2023/11/12 09:58:17;;;;;;;;;;;;;;;;;;6291871;28;19916;-86
2023/11/12 10:01:17;;;;;;;;;;;;;;;;;;6286463;28;19995;-85
2023/11/12 10:04:18;;;;;;;;;;;;;;;;;;6290360;28;19912;-86
2023/11/12 10:07:19;;;;;;;;;;;;;;;;;;6292173;28;20007;-85
2023/11/12 10:10:22;;;;;;;;;;;;;;;;;;6282561;28;20388;-85
2023/11/12 10:13:23;;;;;;;;;;;;;;;;;;6309835;28;19916;-86
2023/11/12 10:16:25;;;;;;;;;;;;;;;;;;6296481;28;19969;-86
2023/11/12 10:19:26;;;;;;;;;;;;;;;;;;6292836;28;19931;-86
2023/11/12 10:22:26;;;;;;;;;;;;;;;;;;6297353;28;19913;-85
2023/11/12 10:25:26;;;;;;;;;;;;;;;;;;6285650;28;19920;-84
2023/11/12 10:28:26;;;;;;;;;;;;;;;;;;6289056;28;19998;-85
2023/11/12 10:31:26;;;;;;;;;;;;;;;;;;6286894;28;19913;-82
2023/11/12 10:34:27;;;;;;;;;;;;;;;;;;6284118;28;20376;-84
2023/11/12 10:37:27;;;;;;;;;;;;;;;;;;6282108;28;19968;-82
2023/11/12 10:40:27;;;;;;;;;;;;;;;;;;6294331;28;20007;-84
2023/11/12 10:43:29;;;;;;;;;;;;;;;;;;6294608;28;19913;-82
2023/11/12 10:46:30;;;;;;;;;;;;;;;;;;6285080;28;19919;-85
2023/11/12 10:49:31;;;;;;;;;;;;;;;;;;6286450;28;19913;-81
2023/11/12 10:52:31;;;;;;;;;;;;;;;;;;6284233;28;19912;-81
2023/11/12 10:55:31;;;;;;;;;;;;;;;;;;6282613;28;19919;-84
2023/11/12 10:58:31;;;;;;;;;;;;;;;;;;6297887;28;19980;-83
2023/11/12 11:01:31;;;;;;;;;;;;;;;;;;6276749;28;19912;-83
2023/11/12 11:04:31;;;;;;;;;;;;;;;;;;6275352;28;19940;-83
2023/11/12 11:07:31;;;;;;;;;;;;;;;;;;6276742;28;19916;-85
2023/11/12 11:10:32;;;;;;;;;;;;;;;;;;6273416;28;19924;-81
2023/11/12 11:13:32;;;;;;;;;;;;;;;;;;6276981;28;19917;-81
2023/11/12 11:16:32;;;;;;;;;;;;;;;;;;6274799;28;19913;-82
2023/11/12 11:19:32;;;;;;;;;;;;;;;;;;6281645;28;19913;-81
2023/11/12 11:22:32;;;;;;;;;;;;;;;;;;6305887;28;19923;-81
2023/11/12 11:25:32;;;;;;;;;;;;;;;;;;6284691;28;20290;-81
2023/11/12 11:28:34;;;;;;;;;;;;;;;;;;6281118;28;19959;-82
2023/11/12 11:31:34;;;;;;;;;;;;;;;;;;6274905;28;19908;-82
2023/11/12 11:34:34;;;;;;;;;;;;;;;;;;6292727;28;20005;-82
2023/11/12 11:37:35;;;;;;;;;;;;;;;;;;6299409;28;19923;-82
2023/11/12 11:40:35;;;;;;;;;;;;;;;;;;6314206;28;19921;-82
2023/11/12 11:43:35;;;;;;;;;;;;;;;;;;6293729;28;20332;-81
2023/11/12 11:46:36;;;;;;;;;;;;;;;;;;5946421;28;10000365;-82
2023/11/12 11:49:36;;;;;;;;;;;;;;;;;;6286646;28;19916;-78
2023/11/12 11:52:36;;;;;;;;;;;;;;;;;;6295157;28;19913;-79
2023/11/12 11:55:36;;;;;;;;;;;;;;;;;;6290191;28;19912;-82
2023/11/12 11:58:36;;;;;;;;;;;;;;;;;;6292337;28;20289;-81
2023/11/12 12:01:36;;;;;;;;;;;;;;;;;;6296116;28;19909;-82
2023/11/12 12:04:36;;;;;;;;;;;;;;;;;;6294572;28;19909;-82
2023/11/12 12:07:38;;;;;;;;;;;;;;;;;;6293738;28;19999;-82
2023/11/12 12:10:39;;;;;;;;;;;;;;;;;;6277403;28;20127;-81
2023/11/12 12:13:40;;;;;;;;;;;;;;;;;;6288787;28;19921;-82
2023/11/12 12:16:40;;;;;;;;;;;;;;;;;;6268141;28;19971;-83
2023/11/12 12:19:40;;;;;;;;;;;;;;;;;;6266826;28;19935;-82
2023/11/12 12:22:40;;;;;;;;;;;;;;;;;;6264219;28;20400;-85
2023/11/12 12:25:40;;;;;;;;;;;;;;;;;;6270145;28;20023;-82
2023/11/12 12:28:40;;;;;;;;;;;;;;;;;;6275701;28;19913;-83
2023/11/12 12:31:40;;;;;;;;;;;;;;;;;;6273356;28;19916;-84
2023/11/12 12:34:44;;;;;;;;;;;;;;;;;;6262066;28;20692;-82
2023/11/12 12:37:45;;;;;;;;;;;;;;;;;;6276008;28;19924;-84
2023/11/12 12:40:48;;;;;;;;;;;;;;;;;;6284946;28;20280;-83
2023/11/12 12:43:49;;;;;;;;;;;;;;;;;;6291300;28;19913;-83
2023/11/12 12:46:51;;;;;;;;;;;;;;;;;;6270342;28;20276;-82
2023/11/12 12:49:51;;;;;;;;;;;;;;;;;;6264504;28;20329;-82
2023/11/12 12:52:52;;;;;;;;;;;;;;;;;;6271641;28;19947;-83
2023/11/12 12:55:54;;;;;;;;;;;;;;;;;;6266232;28;20299;-82
2023/11/12 12:58:55;;;;;;;;;;;;;;;;;;6282527;28;20004;-83
2023/11/12 13:01:55;;;;;;;;;;;;;;;;;;6275008;28;19928;-83
2023/11/12 13:04:55;;;;;;;;;;;;;;;;;;6270659;28;19913;-83
2023/11/12 13:07:55;;;;;;;;;;;;;;;;;;6272480;28;20055;-82
2023/11/12 13:10:55;;;;;;;;;;;;;;;;;;6270238;28;20316;-84
2023/11/12 13:13:55;;;;;;;;;;;;;;;;;;6272001;28;19920;-83
2023/11/12 13:16:55;;;;;;;;;;;;;;;;;;5946836;28;9999954;-82
2023/11/12 13:19:57;;;;;;;;;;;;;;;;;;6278350;28;19912;-82
2023/11/12 13:22:57;;;;;;;;;;;;;;;;;;6283753;28;19912;-83
2023/11/12 13:25:58;;;;;;;;;;;;;;;;;;6270023;28;19924;-83
2023/11/12 13:28:58;;;;;;;;;;;;;;;;;;6291909;28;19920;-85
2023/11/12 13:31:59;;;;;;;;;;;;;;;;;;6274057;28;20373;-82
2023/11/12 13:34:59;;;;;;;;;;;;;;;;;;6280208;28;19924;-82
2023/11/12 13:38:00;;;;;;;;;;;;;;;;;;6272757;28;19921;-82
2023/11/12 13:41:00;;;;;;;;;;;;;;;;;;6284313;28;19924;-83
2023/11/12 13:44:00;;;;;;;;;;;;;;;;;;6276398;28;20368;-83
2023/11/12 13:47:01;;;;;;;;;;;;;;;;;;6276729;28;19912;-85
2023/11/12 13:50:01;;;;;;;;;;;;;;;;;;6274589;28;19955;-82
2023/11/12 13:53:08;;;;;;;;;;;;;;;;;;6290052;28;19936;-82
2023/11/12 13:56:08;;;;;;;;;;;;;;;;;;6274299;28;20002;-85
2023/11/12 13:59:09;;;;;;;;;;;;;;;;;;6273476;28;19925;-86
2023/11/12 14:02:10;;;;;;;;;;;;;;;;;;6279111;28;19916;-82
2023/11/12 14:05:11;;;;;;;;;;;;;;;;;;6283904;28;20378;-82
2023/11/12 14:08:11;;;;;;;;;;;;;;;;;;6298692;28;19958;-82
2023/11/12 14:11:12;;;;;;;;;;;;;;;;;;6295953;28;19912;-82
2023/11/12 14:14:12;;;;;;;;;;;;;;;;;;6299344;28;19917;-82
2023/11/12 14:17:12;;;;;;;;;;;;;;;;;;6301387;28;20369;-82
2023/11/12 14:20:20;;;;;;;;;;;;;;;;;;6292743;28;19931;-82
2023/11/12 14:23:20;;;;;;;;;;;;;;;;;;6287154;28;19917;-82
2023/11/12 14:26:23;;;;;;;;;;;;;;;;;;6301011;28;19912;-82
2023/11/12 14:29:23;;;;;;;;;;;;;;;;;;6294306;28;20207;-85
2023/11/12 14:32:24;;;;;;;;;;;;;;;;;;6299318;28;20399;-84
2023/11/12 14:35:24;;;;;;;;;;;;;;;;;;6300282;28;20250;-82
2023/11/12 14:38:24;;;;;;;;;;;;;;;;;;6297589;28;19921;-83
2023/11/12 14:41:24;;;;;;;;;;;;;;;;;;6283537;28;20003;-82
2023/11/12 14:44:25;;;;;;;;;;;;;;;;;;6295522;28;19918;-82
2023/11/12 14:47:25;;;;;;;;;;;;;;;;;;6298864;28;19912;-82
2023/11/12 14:50:25;;;;;;;;;;;;;;;;;;6292834;28;19913;-82
2023/11/12 14:53:26;;;;;;;;;;;;;;;;;;6297565;28;19999;-83
2023/11/12 14:56:26;;;;;;;;;;;;;;;;;;6299998;28;20384;-82
2023/11/12 14:59:27;;;;;;;;;;;;;;;;;;6296444;28;20363;-82
2023/11/12 15:02:28;;;;;;;;;;;;;;;;;;6324671;28;20010;-82
2023/11/12 15:05:28;;;;;;;;;;;;;;;;;;6313745;28;19912;-82
2023/11/12 15:08:28;;;;;;;;;;;;;;;;;;6295962;28;19919;-82
2023/11/12 15:11:30;;;;;;;;;;;;;;;;;;6300243;28;19908;-82
2023/11/12 15:14:30;;;;;;;;;;;;;;;;;;6297440;28;20289;-82
2023/11/12 15:17:30;;;;;;;;;;;;;;;;;;5953808;28;10000132;-82
2023/11/12 15:20:30;;;;;;;;;;;;;;;;;;6297292;28;20282;-82
2023/11/12 15:23:31;;;;;;;;;;;;;;;;;;6288637;28;19919;-81
2023/11/12 15:26:31;;;;;;;;;;;;;;;;;;6304429;28;19970;-80
2023/11/12 15:29:31;;;;;;;;;;;;;;;;;;6295271;28;20015;-82
2023/11/12 15:32:31;;;;;;;;;;;;;;;;;;6299809;28;19909;-82
2023/11/12 15:35:31;;;;;;;;;;;;;;;;;;6299271;28;19955;-82
2023/11/12 15:38:32;;;;;;;;;;;;;;;;;;6295767;28;19972;-81
2023/11/12 15:41:32;;;;;;;;;;;;;;;;;;6297132;28;20377;-81
2023/11/12 15:44:32;;;;;;;;;;;;;;;;;;6301145;28;19916;-81
2023/11/12 15:47:33;;;;;;;;;;;;;;;;;;6299323;28;19913;-81
2023/11/12 15:50:33;;;;;;;;;;;;;;;;;;6297890;28;19908;-82
2023/11/12 15:53:33;;;;;;;;;;;;;;;;;;6297875;28;19919;-83
2023/11/12 15:56:33;;;;;;;;;;;;;;;;;;6296308;28;20922;-83
2023/11/12 15:59:33;;;;;;;;;;;;;;;;;;6293031;28;20019;-83
2023/11/12 16:02:33;;;;;;;;;;;;;;;;;;6303482;28;19917;-83
2023/11/12 16:05:34;;;;;;;;;;;;;;;;;;6275619;28;20371;-84
2023/11/12 16:08:34;;;;;;;;;;;;;;;;;;6274810;28;19921;-82
2023/11/12 16:11:35;;;;;;;;;;;;;;;;;;6276518;28;19917;-82
2023/11/12 16:14:36;;;;;;;;;;;;;;;;;;6275742;28;20148;-82
2023/11/12 16:17:36;;;;;;;;;;;;;;;;;;6274518;28;19998;-82
2023/11/12 16:20:36;;;;;;;;;;;;;;;;;;6280004;28;19916;-82
2023/11/12 16:23:36;;;;;;;;;;;;;;;;;;6284183;28;19920;-82
2023/11/12 16:26:37;;;;;;;;;;;;;;;;;;6281396;28;19928;-81
2023/11/12 16:29:37;;;;;;;;;;;;;;;;;;6273430;28;19912;-83
2023/11/12 16:32:37;;;;;;;;;;;;;;;;;;6288658;28;19919;-82
2023/11/12 16:35:37;;;;;;;;;;;;;;;;;;6276515;28;20373;-81
2023/11/12 16:38:37;;;;;;;;;;;;;;;;;;6289443;28;19921;-81
2023/11/12 16:41:37;;;;;;;;;;;;;;;;;;6269525;28;19946;-82
2023/11/12 16:44:39;;;;;;;;;;;;;;;;;;6272566;28;20289;-79
2023/11/12 16:47:39;;;;;;;;;;;;;;;;;;6279709;28;19913;-78
2023/11/12 16:50:39;;;;;;;;;;;;;;;;;;6288294;28;19919;-80
2023/11/12 16:53:39;;;;;;;;;;;;;;;;;;6268902;28;20312;-81
2023/11/12 16:56:39;;;;;;;;;;;;;;;;;;6285328;28;20015;-80
2023/11/12 16:59:39;;;;;;;;;;;;;;;;;;6268482;28;19925;-79
2023/11/12 17:02:39;;;;;;;;;;;;;;;;;;6280656;28;20429;-80
2023/11/12 17:05:40;;;;;;;;;;;;;;;;;;6279965;28;19924;-80
2023/11/12 17:08:40;;;;;;;;;;;;;;;;;;6296608;28;19909;-81
2023/11/12 17:11:43;;;;;;;;;;;;;;;;;;6287340;28;19912;-81
2023/11/12 17:14:44;;;;;;;;;;;;;;;;;;6280705;28;19963;-83
2023/11/12 17:17:44;;;;;;;;;;;;;;;;;;6290124;28;20411;-82
2023/11/12 17:20:44;;;;;;;;;;;;;;;;;;6283945;28;19917;-83
2023/11/12 17:23:46;;;;;;;;;;;;;;;;;;6276827;28;20366;-81
2023/11/12 17:26:48;;;;;;;;;;;;;;;;;;6271639;28;19925;-83
2023/11/12 17:29:48;;;;;;;;;;;;;;;;;;6283441;28;19920;-82
2023/11/12 17:32:48;;;;;;;;;;;;;;;;;;6271427;28;20286;-84
2023/11/12 17:35:48;;;;;;;;;;;;;;;;;;6274652;28;19913;-83
2023/11/12 17:38:49;;;;;;;;;;;;;;;;;;6287243;28;19927;-82
2023/11/12 17:41:49;;;;;;;;;;;;;;;;;;6295645;28;19920;-83
2023/11/12 17:44:49;;;;;;;;;;;;;;;;;;6295499;28;20413;-84
2023/11/12 17:47:51;;;;;;;;;;;;;;;;;;6288008;28;19917;-83
2023/11/12 17:50:51;;;;;;;;;;;;;;;;;;6293021;28;19999;-84
2023/11/12 17:53:51;;;;;;;;;;;;;;;;;;6294898;28;19967;-84
2023/11/12 17:56:51;;;;;;;;;;;;;;;;;;6290157;28;19908;-84
2023/11/12 17:59:51;;;;;;;;;;;;;;;;;;6291248;28;19916;-84
2023/11/12 18:02:51;;;;;;;;;;;;;;;;;;6290547;28;20408;-85
2023/11/12 18:05:51;;;;;;;;;;;;;;;;;;6294887;28;20035;-85
2023/11/12 18:08:51;;;;;;;;;;;;;;;;;;6291983;28;19915;-82
2023/11/12 18:11:52;;;;;;;;;;;;;;;;;;6291100;28;19921;-83
2023/11/12 18:14:54;;;;;;;;;;;;;;;;;;6296747;28;20288;-82
2023/11/12 18:17:55;;;;;;;;;;;;;;;;;;6287856;28;20271;-82
2023/11/12 18:20:55;;;;;;;;;;;;;;;;;;6284573;28;20350;-82
2023/11/12 18:23:55;;;;;;;;;;;;;;;;;;6283006;28;19921;-82
2023/11/12 18:26:55;;;;;;;;;;;;;;;;;;6285613;28;20420;-82
2023/11/12 18:29:55;;;;;;;;;;;;;;;;;;6291402;28;19967;-84
2023/11/12 18:32:55;;;;;;;;;;;;;;;;;;6289653;28;19959;-83
2023/11/12 18:35:56;;;;;;;;;;;;;;;;;;6298602;28;20392;-84
2023/11/12 18:38:56;;;;;;;;;;;;;;;;;;6291928;28;19935;-83
2023/11/12 18:41:56;;;;;;;;;;;;;;;;;;6293378;28;20283;-83
2023/11/12 18:44:56;;;;;;;;;;;;;;;;;;6296988;28;20015;-85
2023/11/12 18:47:57;;;;;;;;;;;;;;;;;;6282263;28;19917;-82
2023/11/12 18:50:57;;;;;;;;;;;;;;;;;;6270410;28;19936;-84
2023/11/12 18:53:57;;;;;;;;;;;;;;;;;;6290645;28;19917;-81
2023/11/12 18:56:58;;;;;;;;;;;;;;;;;;6274398;28;19913;-84
2023/11/12 19:00:00;;;;;;;;;;;;;;;;;;6274839;28;20023;-83
2023/11/12 19:03:00;;;;;;;;;;;;;;;;;;6277933;28;19923;-78
2023/11/12 19:06:00;;;;;;;;;;;;;;;;;;6273213;28;20012;-82
2023/11/12 19:09:00;;;;;;;;;;;;;;;;;;6280226;28;20366;-78
2023/11/12 19:12:00;;;;;;;;;;;;;;;;;;6285324;28;19912;-79
2023/11/12 19:15:00;;;;;;;;;;;;;;;;;;6280275;28;19967;-79
2023/11/12 19:18:01;;;;;;;;;;;;;;;;;;6288369;28;19924;-78
2023/11/12 19:21:03;;;;;;;;;;;;;;;;;;6290665;28;20411;-82
2023/11/12 19:24:03;;;;;;;;;;;;;;;;;;6298377;28;19925;-80
2023/11/12 19:27:03;;;;;;;;;;;;;;;;;;6278050;28;19959;-79
2023/11/12 19:30:06;;;;;;;;;;;;;;;;;;6297824;28;19920;-79
2023/11/12 19:33:07;;;;;;;;;;;;;;;;;;6279440;28;19912;-78
2023/11/12 19:36:07;;;;;;;;;;;;;;;;;;6279985;28;19920;-79
2023/11/12 19:39:12;;;;;;;;;;;;;;;;;;6274058;28;19927;-78
2023/11/12 19:42:14;;;;;;;;;;;;;;;;;;6275195;28;19917;-79
2023/11/12 19:45:16;;;;;;;;;;;;;;;;;;6275937;28;20281;-79
2023/11/12 19:48:16;;;;;;;;;;;;;;;;;;6282609;28;19951;-78
2023/11/12 19:51:16;;;;;;;;;;;;;;;;;;6298568;28;20361;-78
2023/11/12 19:54:18;;;;;;;;;;;;;;;;;;6285232;28;19915;-78
2023/11/12 19:57:18;;;;;;;;;;;;;;;;;;6287598;28;20265;-78
2023/11/12 20:00:18;;;;;;;;;;;;;;;;;;6297940;28;19919;-78
2023/11/12 20:03:19;;;;;;;;;;;;;;;;;;6299714;28;19920;-79
2023/11/12 20:06:21;;;;;;;;;;;;;;;;;;6323391;28;19915;-82
2023/11/12 20:09:22;;;;;;;;;;;;;;;;;;6300149;28;19912;-78
2023/11/12 20:12:22;;;;;;;;;;;;;;;;;;6296500;28;19921;-79
2023/11/12 20:15:23;;;;;;;;;;;;;;;;;;6297060;28;19916;-79
2023/11/12 20:18:25;;;;;;;;;;;;;;;;;;6291475;28;19917;-78
2023/11/12 20:21:25;;;;;;;;;;;;;;;;;;6276396;28;19939;-79
2023/11/12 20:24:26;;;;;;;;;;;;;;;;;;6297928;28;19913;-79
2023/11/12 20:27:26;;;;;;;;;;;;;;;;;;6298443;28;19963;-81
2023/11/12 20:30:28;;;;;;;;;;;;;;;;;;6286363;28;19919;-83